Time;durP1;ratioP1;P1;durP2;ratioP2;P2;SDS_P1;SDS_P2;PMS_P1;PMS_P2;Temp;Humidity;BMP_temperature;BMP_pressure;BME280_temperature;BME280_humidity;BME280_pressure;Samples;Min_cycle;Max_cycle;Signal;HPM_P1;HPM_P2
2021/01/31 00:00:21;;;;;;;31.43;23.47;;;;;;;-0.61;67.37;100293.56;5118005;28;20160;-72
2021/01/31 00:02:47;;;;;;;35.40;23.20;;;;;;;-0.70;67.63;100301.69;5117978;28;20167;-74
2021/01/31 00:05:12;;;;;;;40.40;28.60;;;;;;;-0.43;67.25;100301.25;5118247;28;20821;-73
2021/01/31 00:07:38;;;;;;;32.20;24.00;;;;;;;-0.59;67.32;100297.09;5122118;28;20164;-74
2021/01/31 00:10:04;;;;;;;32.23;24.20;;;;;;;-0.79;67.93;100303.81;5121492;28;20237;-71
2021/01/31 00:12:29;;;;;;;31.50;23.17;;;;;;;-0.97;68.02;100307.22;5121948;28;20429;-71
2021/01/31 00:14:54;;;;;;;33.53;26.43;;;;;;;-1.11;67.91;100309.13;5121703;28;20474;-71
2021/01/31 00:17:20;;;;;;;35.10;26.10;;;;;;;-1.20;67.82;100311.22;5121899;28;20172;-73
2021/01/31 00:19:45;;;;;;;42.93;26.20;;;;;;;-1.20;68.53;100308.66;5121612;28;20195;-71
2021/01/31 00:22:10;;;;;;;49.03;27.03;;;;;;;-1.55;68.95;100308.63;5121629;28;20219;-71
2021/01/31 00:24:35;;;;;;;44.37;28.20;;;;;;;-1.59;68.86;100311.81;5121317;28;20199;-71
2021/01/31 00:27:01;;;;;;;128.63;31.37;;;;;;;-1.68;69.51;100315.59;5122155;28;20228;-72
2021/01/31 00:29:26;;;;;;;41.70;26.30;;;;;;;-1.72;69.29;100312.88;5121611;28;20203;-70
2021/01/31 00:31:52;;;;;;;46.87;26.33;;;;;;;-1.73;69.45;100316.22;5121470;28;20206;-71
2021/01/31 00:34:18;;;;;;;60.87;28.77;;;;;;;-1.93;70.35;100311.75;5121854;28;20167;-71
2021/01/31 00:36:44;;;;;;;32.10;20.67;;;;;;;7.68;69.43;100271.63;5120553;28;20163;-66
2021/01/31 00:39:10;;;;;;;31.40;22.73;;;;;;;1.43;58.86;100298.09;5121509;28;20466;-72
2021/01/31 00:41:35;;;;;;;33.67;23.17;;;;;;;-0.16;64.90;100306.78;5121523;28;20168;-73
2021/01/31 00:44:02;;;;;;;26.63;21.23;;;;;;;-0.66;65.52;100315.50;5121341;28;20168;-73
2021/01/31 00:46:32;;;;;;;36.90;22.53;;;;;;;-0.92;65.92;100310.91;5121195;28;20160;-73
2021/01/31 00:48:57;;;;;;;30.00;22.37;;;;;;;-1.59;66.96;100306.69;5121894;28;20448;-73
2021/01/31 00:51:22;;;;;;;31.83;23.80;;;;;;;-1.45;67.56;100303.97;5120989;28;20446;-73
2021/01/31 00:53:48;;;;;;;39.80;24.47;;;;;;;-1.84;68.31;100303.66;5121176;28;20168;-71
2021/01/31 00:56:13;;;;;;;32.90;22.33;;;;;;;-1.92;68.87;100305.81;5121611;28;20186;-71
2021/01/31 00:58:38;;;;;;;36.40;22.90;;;;;;;-2.22;69.76;100303.38;5121254;28;20193;-71
2021/01/31 01:01:04;;;;;;;35.37;23.33;;;;;;;-2.28;70.09;100311.59;5121045;28;20189;-72
2021/01/31 01:03:29;;;;;;;31.23;22.80;;;;;;;-1.89;68.45;100306.00;5121769;27;20175;-72
2021/01/31 01:05:54;;;;;;;28.13;21.23;;;;;;;-1.78;68.51;100304.88;5121174;28;20263;-71
2021/01/31 01:08:19;;;;;;;26.73;20.90;;;;;;;-2.15;69.12;100304.59;5120891;28;20222;-72
2021/01/31 01:10:46;;;;;;;31.20;21.97;;;;;;;-2.33;69.26;100307.91;5121210;28;20194;-71
2021/01/31 01:13:11;;;;;;;34.10;22.87;;;;;;;-1.97;68.32;100304.72;5120840;28;20163;-72
2021/01/31 01:15:37;;;;;;;29.73;20.97;;;;;;;-1.82;67.66;100296.97;5120635;28;20522;-72
2021/01/31 01:18:02;;;;;;;32.83;22.63;;;;;;;-1.82;67.41;100297.84;5121926;28;20194;-72
2021/01/31 01:20:28;;;;;;;30.33;21.60;;;;;;;-2.20;68.70;100301.81;5120440;28;20458;-72
2021/01/31 01:22:53;;;;;;;30.73;20.03;;;;;;;-2.39;69.05;100311.00;5117703;28;20172;-72
2021/01/31 01:25:20;;;;;;;26.43;20.50;;;;;;;-2.55;69.52;100313.53;5109773;28;20492;-71
2021/01/31 01:27:45;;;;;;;32.10;19.73;;;;;;;-2.51;68.81;100310.34;5100308;28;20172;-72
2021/01/31 01:30:14;;;;;;;29.13;21.37;;;;;;;-2.43;69.50;100306.53;5099931;28;20462;-71
2021/01/31 01:32:39;;;;;;;25.60;19.63;;;;;;;-2.55;69.90;100309.28;5100687;28;20165;-72
2021/01/31 01:35:06;;;;;;;26.03;19.63;;;;;;;-2.11;68.42;100315.06;5100191;28;20417;-72
2021/01/31 01:37:31;;;;;;;27.10;21.10;;;;;;;-2.37;68.54;100319.66;5099357;28;20168;-72
2021/01/31 01:39:57;;;;;;;24.43;18.80;;;;;;;-2.31;68.61;100320.75;5100270;28;20418;-72
2021/01/31 01:42:22;;;;;;;19.90;16.40;;;;;;;-2.66;70.43;100320.59;5100052;28;20172;-71
2021/01/31 01:44:47;;;;;;;21.13;17.70;;;;;;;-2.81;70.52;100319.75;5099973;28;20169;-72
2021/01/31 01:47:18;;;;;;;23.90;16.70;;;;;;;-2.81;70.48;100312.09;5100369;28;20454;-72
2021/01/31 01:49:45;;;;;;;21.13;16.30;;;;;;;-3.01;71.67;100316.06;5099231;28;20200;-71
2021/01/31 01:52:20;;;;;;;24.00;18.10;;;;;;;-3.10;71.18;100314.75;5099096;28;20406;-71
2021/01/31 01:54:59;;;;;;;23.50;18.57;;;;;;;-3.15;71.71;100305.03;5099059;28;20421;-72
2021/01/31 01:57:30;;;;;;;24.33;18.17;;;;;;;-3.05;71.85;100295.44;5099678;28;20876;-71
2021/01/31 01:59:57;;;;;;;23.27;17.70;;;;;;;-3.05;71.15;100298.00;5098814;28;20406;-72
2021/01/31 02:02:29;;;;;;;23.60;17.40;;;;;;;-2.85;69.78;100297.41;5099501;28;20513;-73
2021/01/31 02:04:55;;;;;;;25.43;19.50;;;;;;;-2.93;70.04;100299.50;5099433;28;20457;-72
2021/01/31 02:07:21;;;;;;;27.00;21.20;;;;;;;-2.86;69.83;100293.09;5098905;28;20453;-73
2021/01/31 02:09:50;;;;;;;28.80;20.50;;;;;;;-2.89;69.94;100294.66;5099816;28;20482;-71
2021/01/31 02:12:17;;;;;;;27.83;21.20;;;;;;;-1.08;79.22;100293.91;5099629;28;20220;-73
2021/01/31 02:14:45;;;;;;;24.27;19.20;;;;;;;-2.31;67.92;100302.88;5107477;28;20726;-73
2021/01/31 02:17:21;;;;;;;24.13;19.70;;;;;;;-2.75;68.98;100307.31;5106520;28;20468;-72
2021/01/31 02:20:08;;;;;;;25.13;19.20;;;;;;;-3.19;70.71;100304.00;5099594;28;20505;-72
2021/01/31 02:22:42;;;;;;;26.93;20.27;;;;;;;-3.34;71.17;100301.44;5100050;28;20497;-71
2021/01/31 02:25:25;;;;;;;25.00;20.63;;;;;;;-3.32;71.92;100304.06;5099128;28;20409;-72
2021/01/31 02:28:18;;;;;;;27.43;19.40;;;;;;;-3.19;71.85;100303.09;5098125;28;20483;-72
2021/01/31 02:31:03;;;;;;;31.83;22.70;;;;;;;-3.30;71.97;100305.94;5099102;28;20505;-71
2021/01/31 02:33:51;;;;;;;30.87;22.90;;;;;;;-3.36;72.46;100299.59;5098563;28;20421;-73
2021/01/31 02:36:37;;;;;;;33.97;23.67;;;;;;;-3.20;72.41;100304.78;5099196;28;20425;-74
2021/01/31 02:39:26;;;;;;;34.37;22.80;;;;;;;-3.27;72.44;100298.44;5101316;28;20403;-72
2021/01/31 02:41:56;;;;;;;33.80;23.30;;;;;;;-3.07;71.76;100304.69;5100385;28;20416;-72
2021/01/31 02:44:23;;;;;;;40.00;24.10;;;;;;;-3.11;72.09;100307.88;5099530;28;20454;-71
2021/01/31 02:46:58;;;;;;;38.63;25.20;;;;;;;-2.83;71.31;100300.91;5098447;28;20845;-72
2021/01/31 02:50:11;;;;;;;41.00;24.33;;;;;;;-3.29;73.44;100305.16;5099100;28;20463;-71
2021/01/31 02:52:53;;;;;;;38.10;23.70;;;;;;;-2.93;73.26;100304.63;5098879;28;20402;-73
2021/01/31 02:55:27;;;;;;;43.77;24.20;;;;;;;-3.09;73.17;100298.63;5098514;28;20771;-73
2021/01/31 02:58:07;;;;;;;39.17;23.37;;;;;;;-2.94;72.54;100290.09;5098139;28;20471;-72
2021/01/31 03:00:39;;;;;;;44.30;28.93;;;;;;;-2.77;72.46;100285.94;5098624;28;20820;-72
2021/01/31 03:03:06;;;;;;;35.07;22.90;;;;;;;-2.81;71.82;100289.13;5097807;28;20410;-72
2021/01/31 03:05:35;;;;;;;37.07;23.13;;;;;;;-2.67;71.32;100288.19;5098658;28;20456;-73
2021/01/31 03:08:06;;;;;;;41.00;26.07;;;;;;;-2.47;70.46;100291.84;5109391;28;20836;-73
2021/01/31 03:10:38;;;;;;;42.30;24.53;;;;;;;-2.62;70.20;100285.94;5098299;28;20749;-71
2021/01/31 03:13:15;;;;;;;41.90;25.80;;;;;;;-2.89;71.59;100279.34;5080836;28;20823;-72
2021/01/31 03:16:12;;;;;;;37.43;23.67;;;;;;;-2.69;71.47;100291.47;5097558;28;20469;-71
2021/01/31 03:18:45;;;;;;;38.90;25.40;;;;;;;-2.64;71.38;100285.84;5086218;28;20696;-71
2021/01/31 03:21:21;;;;;;;38.77;24.50;;;;;;;-2.82;71.80;100285.69;5097879;28;20418;-72
2021/01/31 03:23:53;;;;;;;41.33;26.10;;;;;;;-2.88;71.00;100285.34;5097759;28;20422;-72
2021/01/31 03:26:35;;;;;;;39.60;25.50;;;;;;;-2.84;71.00;100282.19;5097663;28;20514;-77
2021/01/31 03:29:00;;;;;;;36.20;23.30;;;;;;;-2.92;71.58;100280.88;5097728;28;20453;-72
2021/01/31 03:31:27;;;;;;;38.60;23.93;;;;;;;-3.12;71.62;100284.84;5098355;28;20410;-71
2021/01/31 03:34:07;;;;;;;31.13;21.57;;;;;;;-2.94;71.24;100275.66;5097531;28;20176;-71
2021/01/31 03:36:33;;;;;;;35.97;22.47;;;;;;;-2.93;70.43;100276.56;5097576;28;20478;-71
2021/01/31 03:38:59;;;;;;;29.63;20.73;;;;;;;-3.07;71.23;100279.19;5098157;28;20420;-71
2021/01/31 03:41:27;;;;;;;27.20;18.60;;;;;;;-3.25;71.67;100280.69;5101568;28;20417;-71
2021/01/31 03:43:53;;;;;;;35.20;21.53;;;;;;;-3.33;71.67;100280.25;5102246;28;20796;-71
2021/01/31 03:46:24;;;;;;;32.73;19.70;;;;;;;-3.57;72.08;100277.16;5102224;28;20447;-74
2021/01/31 03:49:03;;;;;;;37.10;21.00;;;;;;;-3.59;72.89;100274.50;5102055;28;20236;-76
2021/01/31 03:51:29;;;;;;;36.57;22.20;;;;;;;-3.51;72.90;100269.00;5101635;28;20416;-71
2021/01/31 03:53:55;;;;;;;35.47;21.17;;;;;;;-3.55;72.92;100263.69;5113929;28;20429;-72
2021/01/31 03:56:25;;;;;;;37.00;21.83;;;;;;;-3.33;72.17;100267.50;5121717;28;20558;-71
2021/01/31 03:58:53;;;;;;;34.23;22.53;;;;;;;-3.30;72.85;100270.25;5121525;28;20179;-71
2021/01/31 04:01:20;;;;;;;33.97;20.63;;;;;;;-3.10;72.23;100273.03;5121650;28;20432;-71
2021/01/31 04:03:51;;;;;;;36.80;23.23;;;;;;;-2.91;71.50;100273.31;5121550;28;20413;-71
2021/01/31 04:06:21;;;;;;;36.43;22.00;;;;;;;-3.22;71.70;100268.13;5121649;28;20818;-71
2021/01/31 04:08:52;;;;;;;41.20;24.10;;;;;;;-2.84;70.85;100266.88;5121438;28;20690;-78
2021/01/31 04:11:32;;;;;;;36.33;22.43;;;;;;;-3.20;71.58;100268.22;5114079;28;20545;-77
2021/01/31 04:14:01;;;;;;;33.37;20.30;;;;;;;-3.60;73.13;100266.78;5101901;28;20402;-75
2021/01/31 04:16:31;;;;;;;34.07;21.07;;;;;;;-3.29;72.71;100266.91;5101091;28;20727;-75
2021/01/31 04:18:56;;;;;;;38.17;23.27;;;;;;;-3.34;71.94;100263.22;5100940;28;20499;-76
2021/01/31 04:21:22;;;;;;;34.93;19.80;;;;;;;-3.19;72.63;100257.22;5101552;28;20459;-77
2021/01/31 04:23:47;;;;;;;30.90;20.27;;;;;;;-3.14;71.57;100261.81;5101834;28;20515;-77
2021/01/31 04:26:12;;;;;;;36.60;22.43;;;;;;;-3.06;71.35;100260.56;5101481;28;20534;-76
2021/01/31 04:28:37;;;;;;;35.90;22.33;;;;;;;-3.36;72.58;100258.81;5120163;28;20203;-74
2021/01/31 04:31:03;;;;;;;42.20;24.27;;;;;;;-2.96;71.53;100253.44;5122075;28;20167;-76
2021/01/31 04:33:28;;;;;;;37.97;21.67;;;;;;;-3.29;71.66;100255.81;5121055;28;20179;-72
2021/01/31 04:35:54;;;;;;;32.77;21.80;;;;;;;-3.41;72.11;100259.44;5121587;28;20190;-71
2021/01/31 04:38:19;;;;;;;35.37;22.60;;;;;;;-3.38;71.58;100254.50;5121863;28;20163;-71
2021/01/31 04:40:44;;;;;;;37.63;23.67;;;;;;;-3.41;72.91;100261.97;5121477;28;20474;-69
2021/01/31 04:43:14;;;;;;;34.10;23.13;;;;;;;-3.44;72.08;100251.59;5121495;28;20168;-71
2021/01/31 04:45:40;;;;;;;36.23;23.07;;;;;;;-3.43;71.91;100253.34;5121686;28;20573;-71
2021/01/31 04:48:17;;;;;;;36.50;23.10;;;;;;;-3.50;71.26;100250.38;5120646;28;20457;-71
2021/01/31 04:50:52;;;;;;;39.93;22.30;;;;;;;-3.13;71.32;100248.25;5120351;28;20409;-70
2021/01/31 04:53:38;;;;;;;35.73;22.13;;;;;;;-3.09;70.46;100245.06;5120276;28;20413;-70
2021/01/31 04:56:15;;;;;;;34.93;21.60;;;;;;;-3.41;71.34;100251.78;5121429;28;20409;-71
2021/01/31 04:58:45;;;;;;;31.40;20.97;;;;;;;-3.61;71.92;100242.97;5121289;28;20510;-70
2021/01/31 05:01:16;;;;;;;34.90;22.03;;;;;;;-3.34;71.38;100249.56;5120296;28;20401;-70
2021/01/31 05:04:02;;;;;;;29.70;20.60;;;;;;;-3.38;71.41;100246.84;5120424;28;20424;-69
2021/01/31 05:06:33;;;;;;;33.30;21.63;;;;;;;-3.16;70.60;100239.56;5121201;28;20442;-71
2021/01/31 05:09:00;;;;;;;35.10;20.97;;;;;;;-3.23;71.58;100240.88;5121296;28;20881;-71
2021/01/31 05:11:28;;;;;;;34.50;20.50;;;;;;;-3.01;70.76;100245.50;5120247;28;20433;-70
2021/01/31 05:13:58;;;;;;;34.33;22.67;;;;;;;-3.25;72.23;100256.09;5120933;28;20695;-70
2021/01/31 05:16:24;;;;;;;32.30;21.13;;;;;;;-3.02;70.72;100255.63;5120019;28;20542;-70
2021/01/31 05:18:52;;;;;;;32.87;21.20;;;;;;;-3.23;71.64;100251.94;5121355;28;20429;-70
2021/01/31 05:21:21;;;;;;;32.17;20.80;;;;;;;-3.16;71.80;100248.09;5120701;28;20413;-70
2021/01/31 05:23:50;;;;;;;34.70;21.87;;;;;;;-3.20;72.26;100246.16;5120937;28;20433;-70
2021/01/31 05:26:16;;;;;;;33.73;22.43;;;;;;;-2.80;71.05;100253.50;5119977;28;20414;-70
2021/01/31 05:28:45;;;;;;;34.53;21.80;;;;;;;-3.20;74.03;100252.94;5119797;28;20548;-71
2021/01/31 05:31:12;;;;;;;33.70;20.10;;;;;;;-3.18;74.68;100247.13;5120143;28;20436;-71
2021/01/31 05:33:54;;;;;;;29.97;20.97;;;;;;;-3.00;73.04;100256.56;5120555;28;20723;-71
2021/01/31 05:36:21;;;;;;;33.30;21.07;;;;;;;-3.07;72.63;100252.84;5120535;28;20417;-70
2021/01/31 05:38:48;;;;;;;31.90;20.47;;;;;;;-3.01;73.26;100244.66;5119798;28;20410;-71
2021/01/31 05:41:45;;;;;;;31.53;21.10;;;;;;;-3.24;73.59;100246.78;5119763;28;20441;-72
2021/01/31 05:44:13;;;;;;;30.03;19.40;;;;;;;-2.98;73.87;100258.44;5119926;28;20401;-70
2021/01/31 05:46:42;;;;;;;38.10;21.47;;;;;;;-2.92;73.98;100251.13;5120453;28;20410;-71
2021/01/31 05:49:10;;;;;;;30.53;19.70;;;;;;;-2.92;72.78;100257.91;5120250;28;20461;-70
2021/01/31 05:51:36;;;;;;;34.00;19.83;;;;;;;-3.04;73.40;100260.66;5119244;28;20452;-70
2021/01/31 05:54:19;;;;;;;28.23;19.33;;;;;;;-2.93;73.02;100258.69;5120555;28;20445;-70
2021/01/31 05:56:45;;;;;;;29.30;18.93;;;;;;;-3.24;75.24;100254.41;5120251;28;20271;-71
2021/01/31 05:59:12;;;;;;;25.80;17.60;;;;;;;-3.25;75.24;100257.75;5120266;28;20422;-70
2021/01/31 06:01:50;;;;;;;30.47;19.47;;;;;;;-3.02;73.43;100265.84;5120053;28;20417;-70
2021/01/31 06:04:16;;;;;;;29.90;20.57;;;;;;;-3.12;73.28;100270.41;5119036;28;20643;-71
2021/01/31 06:06:43;;;;;;;28.70;18.67;;;;;;;-3.02;73.16;100273.47;5119937;28;20409;-70
2021/01/31 06:09:17;;;;;;;29.23;17.57;;;;;;;-3.52;75.08;100267.22;5119817;28;20472;-70
2021/01/31 06:11:44;;;;;;;31.13;18.67;;;;;;;-2.75;75.14;100277.59;5118925;28;20465;-70
2021/01/31 06:14:22;;;;;;;32.23;17.93;;;;;;;-2.84;73.86;100269.44;5118969;28;20799;-70
2021/01/31 06:16:47;;;;;;;28.47;17.33;;;;;;;-2.83;73.39;100267.75;5118912;27;20423;-70
2021/01/31 06:19:31;;;;;;;28.40;18.00;;;;;;;-2.76;72.78;100268.19;5119634;28;20501;-70
2021/01/31 06:21:56;;;;;;;26.87;17.37;;;;;;;-3.06;74.94;100265.66;5118878;28;20529;-70
2021/01/31 06:24:34;;;;;;;27.47;15.83;;;;;;;-2.77;73.69;100263.84;5116589;27;20518;-70
2021/01/31 06:27:00;;;;;;;25.90;16.57;;;;;;;-2.92;74.01;100266.44;5115264;28;20433;-71
2021/01/31 06:29:44;;;;;;;28.53;17.70;;;;;;;-2.74;72.20;100271.66;5116055;28;20798;-70
2021/01/31 06:32:26;;;;;;;28.73;17.50;;;;;;;-2.70;72.77;100285.50;5115800;28;20413;-70
2021/01/31 06:35:00;;;;;;;29.37;17.10;;;;;;;-2.38;71.40;100287.25;5115337;28;20433;-70
2021/01/31 06:37:32;;;;;;;26.70;15.60;;;;;;;-2.58;71.00;100292.94;5115846;28;20421;-69
2021/01/31 06:40:13;;;;;;;25.40;16.73;;;;;;;-2.77;70.34;100289.38;5115814;28;20420;-70
2021/01/31 06:43:00;;;;;;;23.97;16.17;;;;;;;-2.81;70.63;100284.91;5115164;28;20481;-70
2021/01/31 06:45:40;;;;;;;25.10;15.77;;;;;;;-3.01;71.64;100298.19;5115902;28;20413;-71
2021/01/31 06:48:27;;;;;;;22.60;13.57;;;;;;;-3.09;72.91;100288.41;5115764;28;20409;-70
2021/01/31 06:51:03;;;;;;;21.43;13.43;;;;;;;-3.10;72.33;100284.13;5115702;28;20410;-70
2021/01/31 06:53:51;;;;;;;17.70;12.53;;;;;;;-3.18;73.22;100275.19;5115695;28;20429;-70
2021/01/31 06:56:28;;;;;;;21.77;13.80;;;;;;;-2.75;72.52;100282.69;5115014;28;20409;-71
2021/01/31 06:59:35;;;;;;;19.07;13.00;;;;;;;-2.95;72.87;100278.13;5115709;28;20405;-71
2021/01/31 07:02:19;;;;;;;20.10;12.60;;;;;;;-3.23;74.51;100277.44;5112674;28;20421;-71
2021/01/31 07:05:04;;;;;;;19.93;13.27;;;;;;;-2.65;72.96;100280.63;5115531;28;20402;-71
2021/01/31 07:07:54;;;;;;;16.33;11.50;;;;;;;-2.93;75.24;100276.56;5115510;28;20428;-72
2021/01/31 07:10:41;;;;;;;22.93;13.50;;;;;;;-2.73;75.05;100290.44;5115247;28;20780;-70
2021/01/31 07:13:27;;;;;;;22.73;13.70;;;;;;;-3.09;73.14;100290.09;5115312;28;20410;-71
2021/01/31 07:16:09;;;;;;;16.47;11.10;;;;;;;-2.84;72.68;100294.94;5115459;28;20397;-70
2021/01/31 07:18:39;;;;;;;21.37;13.17;;;;;;;-2.90;74.08;100297.13;5114693;28;20409;-70
2021/01/31 07:21:18;;;;;;;18.50;12.97;;;;;;;-3.01;73.77;100300.75;5115329;28;20436;-70
2021/01/31 07:23:45;;;;;;;20.13;11.33;;;;;;;-3.05;74.26;100307.34;5114172;28;20461;-69
2021/01/31 07:26:31;;;;;;;19.57;12.33;;;;;;;-2.96;73.31;100312.97;5114410;28;20492;-70
2021/01/31 07:28:58;;;;;;;18.53;12.33;;;;;;;-2.89;71.74;100296.34;5114274;28;20401;-71
2021/01/31 07:31:37;;;;;;;19.63;13.93;;;;;;;-2.92;71.48;100297.03;5114857;28;20822;-70
2021/01/31 07:34:14;;;;;;;21.07;12.67;;;;;;;-2.84;72.06;100297.47;5111176;28;20454;-71
2021/01/31 07:36:57;;;;;;;21.63;13.03;;;;;;;-2.85;70.59;100299.94;5100603;28;20896;-71
2021/01/31 07:39:29;;;;;;;21.47;13.27;;;;;;;-3.55;72.60;100314.66;5100617;28;20492;-71
2021/01/31 07:41:55;;;;;;;23.20;14.00;;;;;;;-3.16;71.00;100309.28;5100126;28;20410;-70
2021/01/31 07:44:29;;;;;;;20.80;13.70;;;;;;;-3.16;72.39;100301.63;5100111;28;20515;-71
2021/01/31 07:46:58;;;;;;;22.90;12.17;;;;;;;-3.16;73.91;100305.84;5100877;28;20420;-71
2021/01/31 07:49:24;;;;;;;19.30;12.07;;;;;;;-2.93;73.54;100302.06;5100874;28;20602;-70
2021/01/31 07:51:49;;;;;;;21.70;13.07;;;;;;;-3.31;73.10;100304.16;5101384;28;20449;-71
2021/01/31 07:54:24;;;;;;;21.23;14.33;;;;;;;-3.06;71.64;100295.38;5100887;28;20403;-71
2021/01/31 07:56:50;;;;;;;21.63;12.67;;;;;;;-3.22;71.53;100301.25;5100093;28;20164;-71
2021/01/31 07:59:18;;;;;;;21.93;13.13;;;;;;;-3.40;71.79;100301.06;5100746;28;20410;-71
2021/01/31 08:01:49;;;;;;;22.33;13.33;;;;;;;-3.01;71.34;100309.28;5100725;28;20514;-71
2021/01/31 08:04:17;;;;;;;21.63;12.50;;;;;;;-2.89;71.07;100304.84;5101235;28;20453;-71
2021/01/31 08:06:58;;;;;;;17.90;12.73;;;;;;;-2.72;68.83;100293.06;5100544;28;20414;-69
2021/01/31 08:09:26;;;;;;;22.50;13.13;;;;;;;-2.80;70.73;100296.88;5100990;28;20421;-70
2021/01/31 08:11:57;;;;;;;20.37;11.80;;;;;;;-3.01;69.90;100299.06;5100429;28;20676;-71
2021/01/31 08:14:59;;;;;;;17.10;12.97;;;;;;;-2.80;70.05;100296.88;5100609;28;20413;-69
2021/01/31 08:17:43;;;;;;;17.00;11.50;;;;;;;-2.30;68.73;100300.44;5100169;28;20420;-70
2021/01/31 08:20:24;;;;;;;16.73;11.07;;;;;;;-2.17;68.17;100289.19;5100244;28;20421;-71
2021/01/31 08:22:53;;;;;;;14.13;10.60;;;;;;;-2.26;67.44;100299.81;5100111;28;20473;-70
2021/01/31 08:25:18;;;;;;;18.07;9.93;;;;;;;-2.18;69.87;100304.44;5100276;28;20456;-70
2021/01/31 08:27:48;;;;;;;15.40;9.97;;;;;;;-2.21;68.02;100287.28;5100174;28;20430;-70
2021/01/31 08:30:27;;;;;;;16.33;11.30;;;;;;;-1.79;69.56;100289.47;5099762;28;20214;-70
2021/01/31 08:32:59;;;;;;;15.70;11.23;;;;;;;-1.92;68.06;100300.72;5099365;28;20444;-71
2021/01/31 08:35:32;;;;;;;15.97;10.63;;;;;;;-1.79;66.02;100298.00;5100025;28;20800;-71
2021/01/31 08:38:16;;;;;;;15.27;11.30;;;;;;;-1.32;67.99;100311.47;5100076;28;20677;-72
2021/01/31 08:41:01;;;;;;;16.20;11.23;;;;;;;-1.38;64.86;100309.50;5099574;28;20485;-70
2021/01/31 08:43:43;;;;;;;14.30;10.57;;;;;;;-1.31;66.88;100312.34;5099770;28;20505;-70
2021/01/31 08:46:17;;;;;;;15.40;10.70;;;;;;;-0.83;63.80;100318.13;5099851;28;20410;-71
2021/01/31 08:48:49;;;;;;;15.23;10.87;;;;;;;-0.52;62.01;100309.38;5100135;28;20416;-72
2021/01/31 08:51:15;;;;;;;12.73;9.80;;;;;;;1.28;56.67;100298.34;5098796;28;20422;-70
2021/01/31 08:53:41;;;;;;;12.50;9.80;;;;;;;2.27;53.02;100283.22;5099649;28;20409;-71
2021/01/31 08:56:14;;;;;;;13.30;9.90;;;;;;;3.97;48.31;100289.56;5099438;28;20643;-70
2021/01/31 08:58:40;;;;;;;11.40;10.00;;;;;;;4.78;46.07;100279.72;5098438;28;20259;-71
2021/01/31 09:01:05;;;;;;;14.80;10.80;;;;;;;4.36;46.75;100273.47;5099398;28;20736;-69
2021/01/31 09:03:32;;;;;;;14.40;11.60;;;;;;;4.47;45.95;100278.03;5098969;28;20613;-70
2021/01/31 09:06:00;;;;;;;11.90;10.40;;;;;;;4.47;46.87;100273.75;5099452;28;20175;-70
2021/01/31 09:08:26;;;;;;;12.33;9.90;;;;;;;2.95;50.83;100283.84;5098593;28;20402;-70
2021/01/31 09:10:52;;;;;;;13.67;11.03;;;;;;;2.30;52.06;100278.16;5099089;28;20708;-70
2021/01/31 09:13:23;;;;;;;15.00;11.57;;;;;;;0.87;55.46;100288.97;5098893;28;20176;-71
2021/01/31 09:15:48;;;;;;;13.33;10.30;;;;;;;1.48;53.89;100288.00;5099146;28;20164;-71
2021/01/31 09:18:17;;;;;;;12.30;10.50;;;;;;;2.13;52.17;100282.72;5099261;28;20413;-71
2021/01/31 09:20:43;;;;;;;15.20;11.50;;;;;;;3.57;49.03;100274.59;5099150;28;20172;-70
2021/01/31 09:23:12;;;;;;;13.53;10.90;;;;;;;2.39;51.18;100277.63;5098902;28;20963;-71
2021/01/31 09:25:39;;;;;;;15.80;12.43;;;;;;;1.47;53.70;100278.53;5099680;28;20542;-71
2021/01/31 09:28:09;;;;;;;14.47;10.80;;;;;;;1.82;53.22;100268.75;5099084;28;20410;-71
2021/01/31 09:30:35;;;;;;;14.50;11.60;;;;;;;3.59;48.46;100267.81;5098833;28;20873;-70
2021/01/31 09:33:21;;;;;;;13.67;11.27;;;;;;;4.28;46.49;100262.06;5099211;28;20810;-71
2021/01/31 09:35:46;;;;;;;12.40;10.67;;;;;;;4.50;45.60;100262.63;5098646;28;20882;-71
2021/01/31 09:38:17;;;;;;;15.50;12.40;;;;;;;2.13;53.00;100275.00;5098725;28;20445;-71
2021/01/31 09:40:43;;;;;;;15.20;12.43;;;;;;;0.93;55.47;100277.25;5097963;28;20164;-70
2021/01/31 09:43:15;;;;;;;12.83;10.90;;;;;;;0.89;57.32;100279.66;5097751;28;20458;-71
2021/01/31 09:45:44;;;;;;;15.73;12.50;;;;;;;2.04;53.43;100279.81;5098135;28;20414;-70
2021/01/31 09:48:11;;;;;;;15.30;12.40;;;;;;;3.19;51.46;100275.16;5098685;28;20421;-71
2021/01/31 09:50:37;;;;;;;14.47;11.83;;;;;;;3.57;49.09;100269.44;5098074;28;20410;-71
2021/01/31 09:53:04;;;;;;;14.80;12.20;;;;;;;4.91;46.33;100265.38;5080938;28;20418;-70
2021/01/31 09:55:44;;;;;;;12.57;11.23;;;;;;;4.92;45.70;100261.97;5097617;28;20412;-71
2021/01/31 09:58:25;;;;;;;15.97;12.07;;;;;;;5.81;44.00;100267.47;5098349;28;20807;-71
2021/01/31 10:00:52;;;;;;;13.40;11.33;;;;;;;5.73;45.46;100262.13;5097476;28;20418;-71
2021/01/31 10:03:25;;;;;;;13.80;11.73;;;;;;;5.11;44.06;100283.09;5097515;28;20490;-70
2021/01/31 10:06:04;;;;;;;13.80;12.10;;;;;;;5.53;43.77;100287.53;5097711;28;20410;-73
2021/01/31 10:08:30;;;;;;;14.37;12.83;;;;;;;4.16;47.01;100303.00;5097929;28;20409;-71
2021/01/31 10:10:55;;;;;;;15.60;13.17;;;;;;;3.97;48.74;100299.88;5097406;28;20418;-71
2021/01/31 10:13:37;;;;;;;14.77;12.90;;;;;;;2.80;51.15;100314.22;5098634;28;20160;-71
2021/01/31 10:16:15;;;;;;;15.37;12.43;;;;;;;2.68;52.69;100310.41;5097269;28;20179;-71
2021/01/31 10:18:41;;;;;;;18.03;12.53;;;;;;;1.90;53.75;100307.59;5098083;28;20410;-71
2021/01/31 10:21:16;;;;;;;15.00;12.77;;;;;;;2.62;52.49;100310.19;5097183;28;20471;-72
2021/01/31 10:23:43;;;;;;;15.67;12.30;;;;;;;2.21;53.87;100309.59;5097168;28;20227;-71
2021/01/31 10:26:14;;;;;;;18.13;13.77;;;;;;;2.46;54.15;100313.03;5098082;28;20418;-72
2021/01/31 10:29:00;;;;;;;17.43;13.33;;;;;;;1.96;55.03;100305.22;5097988;28;20417;-71
2021/01/31 10:31:41;;;;;;;16.40;13.60;;;;;;;1.74;56.15;100298.41;5097100;28;20767;-72
2021/01/31 10:34:11;;;;;;;19.13;13.37;;;;;;;1.85;56.32;100290.31;5098080;28;20425;-72
2021/01/31 10:36:41;;;;;;;16.87;13.03;;;;;;;1.55;56.72;100294.25;5098079;28;20410;-70
2021/01/31 10:39:09;;;;;;;17.80;13.37;;;;;;;1.79;58.95;100286.63;5097394;28;20406;-70
2021/01/31 10:41:37;;;;;;;17.43;13.20;;;;;;;1.98;56.05;100289.03;5097875;28;20407;-71
2021/01/31 10:44:11;;;;;;;18.30;13.10;;;;;;;2.35;55.41;100290.41;5097981;28;20461;-70
2021/01/31 10:46:38;;;;;;;17.10;12.73;;;;;;;1.79;55.80;100294.34;5097958;28;20425;-71
2021/01/31 10:49:04;;;;;;;16.00;12.20;;;;;;;2.18;55.08;100276.06;5089749;28;20441;-72
2021/01/31 10:51:32;;;;;;;16.17;13.57;;;;;;;2.35;54.75;100287.81;5092478;28;20427;-72
2021/01/31 10:53:58;;;;;;;18.20;14.10;;;;;;;2.83;55.17;100278.28;5086728;28;20433;-71
2021/01/31 10:56:23;;;;;;;17.00;13.07;;;;;;;2.47;54.12;100287.34;5077626;28;20411;-70
2021/01/31 10:58:49;;;;;;;17.27;12.90;;;;;;;3.32;51.90;100277.28;5078178;28;20411;-71
2021/01/31 11:01:14;;;;;;;17.20;12.77;;;;;;;5.03;47.99;100270.88;5077533;28;20180;-71
2021/01/31 11:03:39;;;;;;;15.37;11.50;;;;;;;5.62;46.64;100271.38;5077465;28;20314;-72
2021/01/31 11:06:05;;;;;;;16.50;13.37;;;;;;;5.42;47.59;100268.34;5077463;28;20197;-71
2021/01/31 11:08:31;;;;;;;15.23;12.70;;;;;;;5.32;46.82;100259.50;5077412;28;20557;-72
2021/01/31 11:10:57;;;;;;;18.83;13.30;;;;;;;4.81;47.60;100263.44;5080534;28;20172;-70
2021/01/31 11:13:23;;;;;;;16.90;13.77;;;;;;;4.57;48.59;100259.38;5081802;28;20165;-71
2021/01/31 11:15:48;;;;;;;17.37;13.20;;;;;;;4.53;48.47;100257.53;5081136;28;20411;-72
2021/01/31 11:18:13;;;;;;;14.87;12.70;;;;;;;4.05;49.61;100254.53;5081252;28;20256;-71
2021/01/31 11:20:39;;;;;;;15.67;12.50;;;;;;;3.51;50.63;100260.69;5081318;28;20176;-70
2021/01/31 11:23:04;;;;;;;15.93;13.13;;;;;;;2.93;53.72;100253.72;5080577;28;20233;-72
2021/01/31 11:25:29;;;;;;;19.20;14.00;;;;;;;2.93;53.06;100251.16;5080950;28;20276;-71
2021/01/31 11:27:54;;;;;;;16.47;13.37;;;;;;;3.32;52.56;100254.09;5082106;28;20161;-71
2021/01/31 11:30:20;;;;;;;17.73;13.10;;;;;;;3.58;51.92;100246.31;5080896;28;20176;-71